createdAt,value
2019-04-11T00:01:32.549Z,52.15
2019-04-11T00:06:27.612Z,52.68
2019-04-11T00:11:31.949Z,52.83
2019-04-11T00:16:37.139Z,52.96
2019-04-11T00:21:41.605Z,53.09
2019-04-11T00:26:46.588Z,53.61
2019-04-11T00:31:50.788Z,53.81
2019-04-11T00:36:54.970Z,54.31
2019-04-11T00:41:59.175Z,54.33
2019-04-11T00:47:03.412Z,54.74
2019-04-11T00:52:08.635Z,54.96
2019-04-11T00:57:12.917Z,55.62
2019-04-11T01:02:17.735Z,55.92
2019-04-11T01:07:22.771Z,56.16
2019-04-11T01:12:27.111Z,56.04
2019-04-11T01:17:31.591Z,56.23
2019-04-11T01:22:35.813Z,56.65
2019-04-11T01:27:41.151Z,56.78
2019-04-11T01:32:46.467Z,57.39
2019-04-11T01:37:50.786Z,57.81
2019-04-11T01:42:55.528Z,58.31
2019-04-11T01:48:15.364Z,58.34
2019-04-11T01:53:19.630Z,58.38
2019-04-11T01:58:24.621Z,58.67
2019-04-11T02:03:39.315Z,58.76
2019-04-11T02:08:43.860Z,58.70
2019-04-11T02:13:48.259Z,58.76
2019-04-11T02:18:52.480Z,58.67
2019-04-11T02:24:02.304Z,58.77
2019-04-11T02:29:06.891Z,58.80
2019-04-11T02:34:11.850Z,59.03
2019-04-11T02:39:19.606Z,59.00
2019-04-11T02:44:49.642Z,58.44
2019-04-11T02:49:30.946Z,58.28
2019-04-11T02:54:36.615Z,58.11
2019-04-11T02:59:44.459Z,58.31
2019-04-11T03:04:48.175Z,58.20
2019-04-11T03:09:53.549Z,58.61
2019-04-11T03:15:16.121Z,58.69
2019-04-11T03:20:15.458Z,59.17
2019-04-11T03:25:11.705Z,59.54
2019-04-11T03:30:24.937Z,59.76
2019-04-11T03:40:48.132Z,60.46
2019-04-11T03:45:56.286Z,60.94
2019-04-11T03:50:42.467Z,61.16
2019-04-11T03:55:47.499Z,61.66
2019-04-11T04:00:53.618Z,61.76
2019-04-11T04:05:59.945Z,62.17
2019-04-11T04:11:19.021Z,62.53
2019-04-11T04:16:40.347Z,62.83
2019-04-11T04:21:47.099Z,63.23
2019-04-11T04:26:52.609Z,63.73
2019-04-11T04:31:59.365Z,64.10
2019-04-11T04:37:05.730Z,64.35
2019-04-11T04:42:21.168Z,64.71
2019-04-11T04:47:23.676Z,64.98
2019-04-11T04:52:22.297Z,64.92
2019-04-11T04:57:26.851Z,64.99
2019-04-11T05:02:32.764Z,65.05
2019-04-11T05:07:40.414Z,65.12
2019-04-11T05:12:43.981Z,65.51
2019-04-11T05:17:49.168Z,65.31
2019-04-11T05:22:53.651Z,64.97
2019-04-11T05:27:58.177Z,65.06
2019-04-11T05:33:02.413Z,64.84
2019-04-11T05:38:06.613Z,64.83
2019-04-11T05:43:11.460Z,64.72
2019-04-11T05:48:34.836Z,63.93
2019-04-11T05:53:39.032Z,63.53
2019-04-11T05:58:45.724Z,63.12
2019-04-11T06:03:50.938Z,62.82
2019-04-11T06:09:00.612Z,62.23
2019-04-11T06:14:15.456Z,61.39
2019-04-11T06:19:54.039Z,60.93
2019-04-11T06:25:19.290Z,59.00
2019-04-11T06:30:42.355Z,58.15
2019-04-11T06:36:21.051Z,59.05
2019-04-11T06:41:46.989Z,58.08
2019-04-11T06:47:16.696Z,57.03
2019-04-11T06:52:21.032Z,55.64
2019-04-11T06:57:27.074Z,55.77
2019-04-11T07:02:32.215Z,55.68
2019-04-11T07:07:37.675Z,54.56
2019-04-11T07:12:47.158Z,54.00
2019-04-11T07:18:09.856Z,53.05
2019-04-11T07:23:32.918Z,52.20
2019-04-11T07:28:54.945Z,52.03
2019-04-11T07:34:31.451Z,51.57
2019-04-11T07:39:56.219Z,50.27
2019-04-11T07:45:04.232Z,50.17
2019-04-11T07:50:10.015Z,50.03
2019-04-11T07:55:14.305Z,50.66
2019-04-11T08:00:44.250Z,49.19
2019-04-11T08:06:17.437Z,48.03
2019-04-11T08:11:36.027Z,48.25
2019-04-11T08:17:28.187Z,47.58
2019-04-11T08:22:33.079Z,46.81
2019-04-11T08:27:55.949Z,46.46
2019-04-11T08:32:55.269Z,45.42
2019-04-11T08:38:02.798Z,41.29
2019-04-11T08:43:09.281Z,40.99
2019-04-11T08:48:13.521Z,40.01
2019-04-11T08:53:35.091Z,38.54
2019-04-11T08:58:57.278Z,36.00
2019-04-11T09:04:32.642Z,35.26
2019-04-11T09:10:04.678Z,34.61
2019-04-11T09:15:28.695Z,33.77
2019-04-11T09:20:55.943Z,34.26
2019-04-11T09:26:20.207Z,33.87
2019-04-11T09:31:42.217Z,33.42
2019-04-11T09:37:05.703Z,34.98
2019-04-11T09:42:28.855Z,34.14
2019-04-11T09:47:51.922Z,34.29
2019-04-11T09:52:56.419Z,34.49
2019-04-11T09:58:01.368Z,33.04
2019-04-11T10:03:25.608Z,34.00
2019-04-11T10:08:49.245Z,34.62
2019-04-11T10:14:09.139Z,34.79
2019-04-11T10:19:31.736Z,34.49
2019-04-11T10:24:55.023Z,34.70
2019-04-11T10:30:17.397Z,34.59
2019-04-11T10:35:40.681Z,34.79
2019-04-11T10:41:13.049Z,33.78
2019-04-11T10:46:36.213Z,34.11
2019-04-11T10:51:50.018Z,34.30
2019-04-11T10:57:16.281Z,34.13
2019-04-11T11:02:37.740Z,33.54
2019-04-11T11:07:44.605Z,32.31
2019-04-11T11:13:18.020Z,30.66
2019-04-11T11:19:15.586Z,30.35
2019-04-11T11:24:09.281Z,32.20
2019-04-11T11:29:45.706Z,34.59
2019-04-11T11:34:57.223Z,35.76
2019-04-11T11:40:38.297Z,36.38
2019-04-11T11:46:01.146Z,36.00
2019-04-11T11:51:10.906Z,37.05
2019-04-11T11:56:15.901Z,38.07
2019-04-11T12:01:20.176Z,38.54
2019-04-11T12:06:25.192Z,38.45
2019-04-11T12:11:30.342Z,38.75
2019-04-11T12:17:03.292Z,39.36
2019-04-11T12:22:06.219Z,38.83
2019-04-11T12:27:29.448Z,38.38
2019-04-11T12:32:34.747Z,37.05
2019-04-11T12:37:43.855Z,35.50
2019-04-11T12:42:48.020Z,35.41
2019-04-11T12:47:55.347Z,34.44
2019-04-11T12:53:10.349Z,33.62
2019-04-11T12:58:33.522Z,32.72
2019-04-11T13:03:55.721Z,32.78
2019-04-11T13:09:16.990Z,33.23
2019-04-11T13:14:38.862Z,33.10
2019-04-11T13:20:11.327Z,33.87
2019-04-11T13:25:33.691Z,35.12
2019-04-11T13:30:57.707Z,35.42
2019-04-11T13:36:23.643Z,35.83
2019-04-11T13:41:59.026Z,36.30
2019-04-11T13:47:11.225Z,36.90
2019-04-11T13:52:34.374Z,37.71
2019-04-11T13:57:57.569Z,38.22
2019-04-11T14:03:18.868Z,38.11
2019-04-11T14:08:27.379Z,52.27
2019-04-11T14:13:38.976Z,49.99
2019-04-11T14:19:07.044Z,35.04
2019-04-11T14:24:24.262Z,32.75
2019-04-11T14:29:59.538Z,35.01
2019-04-11T14:35:22.757Z,37.38
2019-04-11T14:40:33.534Z,38.64
2019-04-11T14:45:55.738Z,39.80
2019-04-11T14:51:15.989Z,40.52
2019-04-11T14:56:21.804Z,40.68
2019-04-11T15:01:27.923Z,41.53
2019-04-11T15:06:34.535Z,41.47
2019-04-11T15:11:53.014Z,41.45
2019-04-11T15:17:10.682Z,41.61
2019-04-11T15:22:24.339Z,41.72
2019-04-11T15:28:07.976Z,42.04
2019-04-11T15:33:30.903Z,42.98
2019-04-11T15:38:47.877Z,43.05
2019-04-11T15:44:11.715Z,43.58
2019-04-11T15:49:33.975Z,43.25
2019-04-11T15:54:57.141Z,43.28
2019-04-11T16:00:29.457Z,44.09
2019-04-11T16:05:52.614Z,45.26
2019-04-11T16:11:14.515Z,45.56
2019-04-11T16:16:20.350Z,45.09
2019-04-11T16:21:32.836Z,45.06
2019-04-11T16:26:50.396Z,44.60
2019-04-11T16:31:55.836Z,44.83
2019-04-11T16:37:02.867Z,44.80
2019-04-11T16:42:10.086Z,44.96
2019-04-11T16:47:31.535Z,45.17
2019-04-11T16:52:38.582Z,45.97
2019-04-11T16:57:44.259Z,46.08
2019-04-11T17:02:49.246Z,46.32
2019-04-11T17:08:15.161Z,46.44
2019-04-11T17:13:19.394Z,46.02
2019-04-11T17:18:23.635Z,46.69
2019-04-11T17:23:27.863Z,47.44
2019-04-11T17:28:32.182Z,48.71
2019-04-11T17:33:36.375Z,49.88
2019-04-11T17:38:40.605Z,51.35
2019-04-11T17:43:47.040Z,53.43
2019-04-11T17:48:50.738Z,54.65
2019-04-11T17:53:55.654Z,54.58
2019-04-11T17:59:00.158Z,54.83
2019-04-11T18:04:04.792Z,55.08
2019-04-11T18:09:12.086Z,55.26
2019-04-11T18:14:16.308Z,55.41
2019-04-11T18:19:20.585Z,55.47
2019-04-11T18:24:24.839Z,55.72
2019-04-11T18:29:29.146Z,55.57
2019-04-11T18:34:34.384Z,55.24
2019-04-11T18:39:38.897Z,55.41
2019-04-11T18:44:43.159Z,55.18
2019-04-11T18:49:47.397Z,55.08
2019-04-11T18:54:51.690Z,54.91
2019-04-11T18:59:55.977Z,55.03
2019-04-11T19:05:02.101Z,54.79
2019-04-11T19:10:07.894Z,54.90
2019-04-11T19:15:13.801Z,54.70
2019-04-11T19:20:19.797Z,54.89
2019-04-11T19:25:24.658Z,55.15
2019-04-11T19:30:29.114Z,55.24
2019-04-11T19:35:33.978Z,55.22
2019-04-11T19:40:38.627Z,55.58
2019-04-11T19:45:43.371Z,55.82
2019-04-11T19:50:47.846Z,56.10
2019-04-11T19:56:11.037Z,56.36
2019-04-11T20:01:15.374Z,56.37
2019-04-11T20:06:19.594Z,56.55
2019-04-11T20:11:23.841Z,56.44
2019-04-11T20:16:28.051Z,56.35
2019-04-11T20:21:32.272Z,56.30
2019-04-11T20:26:36.499Z,56.42
2019-04-11T20:31:40.848Z,56.28
2019-04-11T20:36:45.115Z,56.09
2019-04-11T20:41:53.242Z,56.36
2019-04-11T20:46:55.384Z,56.22
2019-04-11T20:51:59.597Z,56.56
2019-04-11T20:57:03.817Z,56.42
2019-04-11T21:02:08.106Z,56.55
2019-04-11T21:07:12.356Z,55.91
2019-04-11T21:12:18.189Z,56.00
2019-04-11T21:17:22.398Z,55.84
2019-04-11T21:22:26.610Z,55.85
2019-04-11T21:27:30.836Z,55.76
2019-04-11T21:32:35.036Z,55.45
2019-04-11T21:37:39.243Z,55.59
2019-04-11T21:42:43.441Z,55.76
2019-04-11T21:47:47.635Z,55.70
2019-04-11T21:52:51.854Z,55.65
2019-04-11T21:57:56.086Z,55.96
2019-04-11T22:03:00.279Z,56.29
2019-04-11T22:08:04.469Z,56.21
2019-04-11T22:13:10.093Z,56.43
2019-04-11T22:18:16.724Z,56.60
2019-04-11T22:23:20.606Z,56.79
2019-04-11T22:28:25.150Z,57.36
2019-04-11T22:33:42.708Z,57.29
2019-04-11T22:38:46.906Z,57.23
2019-04-11T22:43:51.109Z,57.66
2019-04-11T22:48:55.294Z,58.27
2019-04-11T22:54:00.575Z,58.17
2019-04-11T22:59:05.050Z,58.22
2019-04-11T23:04:09.251Z,58.71
2019-04-11T23:09:13.489Z,58.94
2019-04-11T23:14:17.686Z,59.46
2019-04-11T23:19:21.899Z,59.84
2019-04-11T23:24:26.075Z,60.28
2019-04-11T23:29:30.273Z,60.49
2019-04-11T23:34:34.489Z,60.75
2019-04-11T23:39:38.668Z,60.86
2019-04-11T23:44:42.881Z,61.06
2019-04-11T23:49:47.093Z,61.15
2019-04-11T23:54:51.319Z,61.69
2019-04-11T23:59:55.498Z,62.00
